Stateline, California
Current Conditions -  °F | °C
As of 9:53 PM on Sunday 25 Jan 2015 (Local Time) from KTVL Reporting Station
Clear Clear  
Wind Chill: 32°   Ceiling: Unl
Heat Index: 32°   Visibility: 10mi
Dew Point: 23°   Wind: 3mph
Humidity: 69%   Direction: 230°SW
Pressure: 30.34"   Gusts: NA
Location:  38.9418°N, 119.977°W
Report Text: KTVL 260553Z AUTO 23003KT 10SM CLR 00/M05 A3034 RMK AO2 SLP257 T00001050 10150 20000 51011
Loading
Personal Weather Stations






























Interactive Weather Map New forecast layout! Learn more

10-Day Weather Forecast

Advertisements
Track Severe Weather on mobile